Time;durP1;ratioP1;P1;durP2;ratioP2;P2;SDS_P1;SDS_P2;PMS_P1;PMS_P2;Temp;Humidity;BMP_temperature;BMP_pressure;BME280_temperature;BME280_humidity;BME280_pressure;Samples;Min_cycle;Max_cycle;Signal;HPM_P1;HPM_P2
2021/09/15 00:00:54;;;;;;;13.73;8.20;;;18.00;99.90;;;;;;20853122;28;20460;-79
2021/09/15 00:10:55;;;;;;;12.57;7.10;;;18.00;99.90;;;;;;20841623;28;20044;-80
2021/09/15 00:20:56;;;;;;;18.83;8.70;;;17.90;99.90;;;;;;20844292;28;20559;-81
2021/09/15 00:30:57;;;;;;;13.80;9.03;;;17.70;99.90;;;;;;20844916;28;20110;-81
2021/09/15 00:40:57;;;;;;;11.00;7.93;;;17.60;99.90;;;;;;20844738;28;20391;-81
2021/09/15 00:50:58;;;;;;;14.17;8.23;;;17.60;99.90;;;;;;20844917;28;20502;-79
2021/09/15 01:01:00;;;;;;;11.25;8.30;;;17.60;99.90;;;;;;20845763;28;20042;-78
2021/09/15 01:11:01;;;;;;;;;;;17.70;99.90;;;;;;20846052;28;20029;-80
2021/09/15 01:21:08;;;;;;;15.80;9.60;;;17.60;99.90;;;;;;20846910;28;19913;-80
2021/09/15 01:31:55;;;;;;;15.27;8.65;;;17.30;99.90;;;;;;20837441;28;20030;-81
2021/09/15 01:41:58;;;;;;;12.50;6.55;;;17.40;99.90;;;;;;20839649;28;20029;-79
2021/09/15 01:52:00;;;;;;;9.70;6.63;;;17.40;99.90;;;;;;20840939;28;20037;-81
2021/09/15 02:02:02;;;;;;;9.45;5.78;;;17.40;99.90;;;;;;20835844;28;20431;-79
2021/09/15 02:12:19;;;;;;;11.27;6.80;;;17.60;99.90;;;;;;20874004;28;20040;-79
2021/09/15 02:22:21;;;;;;;9.15;6.25;;;17.50;99.90;;;;;;20891220;28;20033;-79
2021/09/15 02:32:45;;;;;;;9.52;6.03;;;17.50;99.90;;;;;;20873042;28;20045;-79
2021/09/15 02:43:05;;;;;;;10.18;5.03;;;17.50;99.90;;;;;;20894056;28;20041;-80
2021/09/15 02:53:20;;;;;;;12.07;6.40;;;17.40;99.90;;;;;;20908934;28;20029;-80
2021/09/15 03:03:41;;;;;;;12.52;6.43;;;17.30;99.90;;;;;;20878709;28;20034;-79
2021/09/15 03:13:58;;;;;;;10.05;6.47;;;17.30;99.90;;;;;;20866838;28;20034;-80
2021/09/15 03:23:59;;;;;;;12.10;7.10;;;17.20;99.90;;;;;;20818154;28;20389;-78
2021/09/15 03:34:01;;;;;;;12.35;6.32;;;17.00;99.90;;;;;;20882588;28;20037;-79
2021/09/15 03:44:02;;;;;;;15.67;7.83;;;17.10;99.90;;;;;;20959358;28;20040;-78
2021/09/15 03:54:04;;;;;;;13.20;8.43;;;17.20;99.90;;;;;;20946339;28;20043;-79
2021/09/15 04:04:05;;;;;;;;;;;17.20;99.90;;;;;;20926507;28;20033;-77
2021/09/15 04:14:06;;;;;;;15.50;9.25;;;17.20;99.90;;;;;;20841875;28;19913;-78
2021/09/15 04:34:15;;;;;;;11.43;7.43;;;17.20;99.90;;;;;;20827292;28;20030;-79
2021/09/15 04:44:27;;;;;;;12.32;8.05;;;17.30;99.90;;;;;;20809550;28;20033;-79
2021/09/15 04:54:28;;;;;;;14.90;7.53;;;17.30;99.90;;;;;;20773807;28;20109;-79
2021/09/15 05:04:30;;;;;;;17.25;7.35;;;17.20;99.90;;;;;;20780186;28;20045;-78
2021/09/15 05:14:46;;;;;;;15.70;8.45;;;17.30;99.90;;;;;;20810302;28;20037;-78
2021/09/15 05:24:47;;;;;;;;;;;17.00;99.90;;;;;;20825248;28;20041;-79
2021/09/15 05:34:49;;;;;;;13.80;8.93;;;17.00;99.90;;;;;;20824478;28;20023;-79
2021/09/15 05:44:51;;;;;;;13.20;9.13;;;17.10;99.90;;;;;;20824346;28;20033;-78
2021/09/15 05:54:52;;;;;;;18.63;10.70;;;17.20;99.90;;;;;;20832764;28;20386;-78
2021/09/15 06:04:53;;;;;;;11.60;8.55;;;17.30;99.90;;;;;;20808321;28;20040;-78
2021/09/15 06:14:59;;;;;;;15.93;9.60;;;17.40;99.90;;;;;;20787748;28;20029;-78
2021/09/15 06:25:01;;;;;;;17.23;9.60;;;17.40;99.90;;;;;;20790925;28;20025;-80
2021/09/15 06:35:07;;;;;;;21.08;12.07;;;17.40;99.90;;;;;;20801120;28;20033;-78
2021/09/15 06:45:08;;;;;;;19.30;11.25;;;17.40;99.90;;;;;;20802105;28;20030;-80
2021/09/15 06:55:10;;;;;;;18.80;12.02;;;17.60;99.90;;;;;;20802954;28;20508;-78
2021/09/15 07:05:11;;;;;;;17.88;10.05;;;17.90;99.90;;;;;;20799910;28;20056;-80
2021/09/15 07:15:12;;;;;;;18.90;10.33;;;18.00;99.90;;;;;;20763384;28;20022;-79
2021/09/15 07:25:13;;;;;;;14.13;9.00;;;18.10;99.90;;;;;;20764869;28;20034;-78
2021/09/15 07:35:14;;;;;;;19.07;9.97;;;18.30;99.90;;;;;;20760863;28;20076;-81
2021/09/15 07:45:15;;;;;;;20.00;11.13;;;18.30;99.90;;;;;;20757480;28;20644;-77
2021/09/15 07:55:16;;;;;;;17.70;11.57;;;18.10;99.90;;;;;;20771731;28;20033;-79
2021/09/15 08:05:17;;;;;;;16.87;11.43;;;18.20;99.90;;;;;;20828517;28;20433;-78
2021/09/15 08:15:18;;;;;;;17.80;11.87;;;18.40;99.90;;;;;;20840489;28;20510;-80
2021/09/15 08:25:19;;;;;;;16.87;12.47;;;18.70;99.90;;;;;;20838237;28;20296;-78
2021/09/15 08:35:20;;;;;;;17.47;11.57;;;18.70;99.90;;;;;;20835192;28;20034;-79
2021/09/15 08:45:23;;;;;;;20.77;12.77;;;18.60;99.90;;;;;;20833669;28;20496;-79
2021/09/15 08:55:24;;;;;;;16.95;11.77;;;18.70;99.90;;;;;;20831849;28;20043;-78
2021/09/15 09:05:25;;;;;;;15.30;9.90;;;19.30;99.90;;;;;;20835694;28;20051;-79
2021/09/15 09:15:27;;;;;;;13.17;8.63;;;19.50;99.90;;;;;;20834265;28;20151;-78
2021/09/15 09:25:54;;;;;;;14.77;7.35;;;19.40;99.90;;;;;;20833584;28;20116;-78
2021/09/15 09:35:58;;;;;;;9.83;7.73;;;19.20;99.90;;;;;;20847570;28;20049;-80
2021/09/15 09:46:00;;;;;;;12.10;8.88;;;19.30;99.90;;;;;;20838739;28;20025;-79
2021/09/15 09:56:01;;;;;;;12.57;8.73;;;19.40;99.90;;;;;;20839314;28;20037;-81
2021/09/15 10:06:02;;;;;;;12.20;9.03;;;19.40;99.90;;;;;;20857176;28;20120;-79
2021/09/15 10:16:05;;;;;;;18.67;11.47;;;19.40;99.90;;;;;;20858794;28;20107;-81
2021/09/15 10:26:34;;;;;;;16.45;10.15;;;19.20;99.90;;;;;;20859062;28;20033;-82
2021/09/15 10:36:39;;;;;;;16.38;8.93;;;19.10;99.90;;;;;;20859836;28;20124;-79
2021/09/15 10:46:41;;;;;;;14.05;9.25;;;19.70;99.90;;;;;;20842270;28;20045;-79
2021/09/15 10:56:42;;;;;;;10.85;5.72;;;20.40;99.90;;;;;;20811697;28;20021;-79
2021/09/15 11:06:43;;;;;;;11.73;7.77;;;21.40;99.90;;;;;;20806064;28;20144;-78
2021/09/15 11:16:45;;;;;;;15.73;9.10;;;20.70;99.90;;;;;;20793291;28;20057;-80
2021/09/15 11:26:53;;;;;;;15.02;9.27;;;20.30;99.90;;;;;;20822437;28;20377;-80
2021/09/15 11:36:54;;;;;;;10.18;8.43;;;20.20;99.90;;;;;;20763139;28;20026;-81
2021/09/15 11:47:01;;;;;;;10.77;7.20;;;20.10;99.90;;;;;;20819669;28;20039;-81
2021/09/15 11:57:06;;;;;;;10.65;7.35;;;20.20;99.90;;;;;;20825414;28;20117;-79
2021/09/15 12:07:07;;;;;;;12.43;7.00;;;20.30;99.90;;;;;;20827327;28;20125;-81
2021/09/15 12:17:08;;;;;;;9.27;7.50;;;20.20;99.90;;;;;;20831338;28;20052;-78
2021/09/15 12:27:14;;;;;;;12.57;7.60;;;20.10;99.90;;;;;;20825604;28;20037;-79
2021/09/15 12:37:20;;;;;;;13.98;6.82;;;20.20;99.90;;;;;;20822548;28;20400;-79
2021/09/15 12:47:31;;;;;;;11.00;6.55;;;20.10;99.90;;;;;;20830644;28;20091;-78
2021/09/15 12:57:32;;;;;;;12.30;5.37;;;20.40;99.90;;;;;;20800107;28;20794;-79
2021/09/15 13:07:33;;;;;;;;;;;20.10;99.90;;;;;;20777173;28;20057;-79
2021/09/15 13:17:34;;;;;;;11.70;6.17;;;19.90;99.90;;;;;;20780080;28;20039;-80
2021/09/15 13:27:37;;;;;;;8.93;5.80;;;20.10;99.90;;;;;;20781601;28;20096;-80
2021/09/15 13:37:38;;;;;;;11.60;6.32;;;20.20;99.90;;;;;;20768120;28;20033;-80
2021/09/15 13:47:43;;;;;;;12.17;6.93;;;19.60;99.90;;;;;;20790558;28;20029;-80
2021/09/15 13:57:47;;;;;;;12.23;7.60;;;19.70;99.90;;;;;;20772640;28;20057;-80
2021/09/15 14:07:48;;;;;;;12.45;7.28;;;19.70;99.90;;;;;;20784896;28;20087;-80
2021/09/15 14:17:49;;;;;;;15.93;7.77;;;20.00;99.90;;;;;;20774943;28;20113;-78
2021/09/15 14:27:50;;;;;;;16.07;7.00;;;20.40;99.90;;;;;;20774995;28;20579;-79
2021/09/15 14:37:51;;;;;;;10.75;7.03;;;20.20;99.90;;;;;;20775891;28;20022;-80
2021/09/15 14:47:51;;;;;;;13.97;7.90;;;20.50;99.90;;;;;;20780018;28;20028;-78
2021/09/15 14:57:52;;;;;;;14.13;7.37;;;20.70;99.90;;;;;;20776856;28;20040;-78
2021/09/15 15:07:53;;;;;;;12.17;6.87;;;20.70;99.90;;;;;;20783031;28;20033;-78
2021/09/15 15:17:54;;;;;;;10.03;7.23;;;20.50;99.90;;;;;;20754793;28;20034;-78
2021/09/15 15:27:55;;;;;;;13.77;8.83;;;20.30;99.90;;;;;;20783674;28;20389;-79
2021/09/15 15:37:56;;;;;;;14.10;9.07;;;20.20;99.90;;;;;;20771273;28;20518;-78
2021/09/15 15:47:56;;;;;;;11.77;8.87;;;20.20;99.90;;;;;;20826823;28;20031;-78
2021/09/15 15:57:57;;;;;;;13.87;8.77;;;20.20;99.90;;;;;;20830373;28;20041;-79
2021/09/15 16:07:58;;;;;;;12.03;9.13;;;19.90;99.90;;;;;;20781302;28;20084;-77
2021/09/15 16:17:59;;;;;;;16.73;10.07;;;19.80;99.90;;;;;;20780861;28;20029;-78
2021/09/15 16:28:00;;;;;;;15.27;9.33;;;19.80;99.90;;;;;;20768610;28;20053;-78
2021/09/15 16:38:01;;;;;;;14.93;9.10;;;19.60;99.90;;;;;;20776330;28;20029;-78
2021/09/15 16:48:01;;;;;;;16.87;9.47;;;19.60;99.90;;;;;;20784500;28;20385;-79
2021/09/15 16:58:02;;;;;;;16.67;9.80;;;19.50;99.90;;;;;;20767834;28;20045;-79
2021/09/15 17:08:04;;;;;;;12.80;9.20;;;19.40;99.90;;;;;;20764525;28;20041;-79
2021/09/15 17:18:05;;;;;;;16.23;8.30;;;19.20;99.90;;;;;;20804827;28;20068;-79
2021/09/15 17:28:06;;;;;;;12.83;8.27;;;19.10;99.90;;;;;;20758343;28;20029;-79
2021/09/15 17:38:07;;;;;;;14.00;8.93;;;19.00;99.90;;;;;;20808957;28;20033;-79
2021/09/15 17:48:11;;;;;;;14.93;8.57;;;18.90;99.90;;;;;;20784191;28;20416;-78
2021/09/15 17:58:12;;;;;;;9.35;6.57;;;18.80;99.90;;;;;;20781395;28;20549;-76
2021/09/15 18:08:12;;;;;;;19.33;11.87;;;18.70;99.90;;;;;;20758137;28;20022;-76
2021/09/15 18:18:13;;;;;;;9.43;6.93;;;18.60;99.90;;;;;;20743674;28;20025;-76
2021/09/15 18:28:14;;;;;;;12.77;7.00;;;18.50;99.90;;;;;;20758100;28;20030;-77
2021/09/15 18:38:16;;;;;;;13.05;5.50;;;18.40;99.90;;;;;;20758146;28;20140;-77
2021/09/15 18:48:19;;;;;;;8.27;4.63;;;18.30;99.90;;;;;;20761614;28;20084;-77
2021/09/15 18:58:20;;;;;;;12.93;5.68;;;18.30;99.90;;;;;;20748364;28;20038;-77
2021/09/15 19:08:21;;;;;;;45.83;6.03;;;18.40;99.90;;;;;;20765727;28;20495;-77
2021/09/15 19:18:22;;;;;;;10.00;5.30;;;18.20;99.90;;;;;;20788283;28;20045;-77
2021/09/15 19:28:23;;;;;;;21.27;7.87;;;18.20;99.90;;;;;;20766181;28;20546;-77
2021/09/15 19:38:24;;;;;;;12.55;7.85;;;17.60;99.90;;;;;;20752574;28;20555;-77
2021/09/15 19:48:25;;;;;;;20.97;6.53;;;17.50;99.90;;;;;;20761397;28;20034;-76
2021/09/15 19:58:26;;;;;;;8.77;5.20;;;17.70;99.90;;;;;;20758956;28;20029;-76
2021/09/15 20:08:27;;;;;;;12.70;6.43;;;17.90;99.90;;;;;;20755777;28;20113;-77
2021/09/15 20:18:28;;;;;;;17.77;5.90;;;17.90;99.90;;;;;;20755722;28;20069;-76
2021/09/15 20:28:32;;;;;;;11.70;6.28;;;18.00;99.90;;;;;;20756905;28;20031;-77
2021/09/15 20:38:33;;;;;;;8.18;4.20;;;17.70;99.90;;;;;;20791773;28;20038;-77
2021/09/15 20:48:33;;;;;;;7.47;4.40;;;17.40;99.90;;;;;;20826875;28;20041;-77
2021/09/15 20:58:34;;;;;;;9.20;4.43;;;16.90;99.90;;;;;;20797085;28;20465;-77
2021/09/15 21:08:35;;;;;;;30.37;4.93;;;16.70;99.90;;;;;;20790191;28;20025;-77
2021/09/15 21:18:36;;;;;;;17.83;4.20;;;16.70;99.90;;;;;;20789310;28;20032;-77
2021/09/15 21:28:37;;;;;;;14.83;4.17;;;16.80;99.90;;;;;;20788865;28;20025;-77
2021/09/15 21:38:38;;;;;;;12.33;4.43;;;16.80;99.90;;;;;;20787567;28;20053;-76
2021/09/15 21:48:39;;;;;;;7.37;5.10;;;16.60;99.90;;;;;;20804504;28;20022;-77
2021/09/15 21:58:39;;;;;;;8.83;4.97;;;16.70;99.90;;;;;;20787162;28;20045;-77
2021/09/15 22:08:40;;;;;;;9.90;4.53;;;16.70;99.90;;;;;;20779082;28;20096;-78
2021/09/15 22:18:41;;;;;;;13.67;5.40;;;16.60;99.90;;;;;;20776415;28;20541;-79
2021/09/15 22:28:42;;;;;;;11.67;5.03;;;16.40;99.90;;;;;;20775798;28;20041;-78
2021/09/15 22:38:43;;;;;;;13.90;5.50;;;16.40;99.90;;;;;;20771206;28;20037;-76
2021/09/15 22:48:44;;;;;;;26.53;5.33;;;16.50;99.90;;;;;;20761391;28;20030;-76
2021/09/15 22:58:45;;;;;;;9.30;4.70;;;16.40;99.90;;;;;;20778864;28;20026;-76
2021/09/15 23:08:45;;;;;;;11.40;4.53;;;16.30;99.90;;;;;;20765262;28;20029;-75
2021/09/15 23:18:47;;;;;;;10.87;4.30;;;15.90;99.90;;;;;;20766457;28;20038;-78
2021/09/15 23:28:48;;;;;;;8.03;3.87;;;15.90;99.90;;;;;;20766187;28;20037;-79
2021/09/15 23:38:48;;;;;;;8.80;3.27;;;15.70;99.90;;;;;;20763706;28;20303;-79
2021/09/15 23:48:49;;;;;;;5.70;3.77;;;15.90;99.90;;;;;;20762830;28;20026;-79
2021/09/15 23:58:50;;;;;;;6.90;3.10;;;16.00;99.90;;;;;;20764719;28;20507;-79
